Time;durP1;ratioP1;P1;durP2;ratioP2;P2;SDS_P1;SDS_P2;PMS_P1;PMS_P2;Temp;Humidity;BMP_temperature;BMP_pressure;BME280_temperature;BME280_humidity;BME280_pressure;Samples;Min_cycle;Max_cycle;Signal;HPM_P1;HPM_P2
2022/11/23 00:01:15;;;;;;;22.42;14.25;;;;;;;;;;5022145;28;20073;-71
2022/11/23 00:03:42;;;;;;;24.10;14.63;;;;;;;;;;5011139;28;20061;-71
2022/11/23 00:06:09;;;;;;;26.23;14.38;;;;;;;;;;5011596;28;20046;-71
2022/11/23 00:08:35;;;;;;;26.92;14.18;;;;;;;;;;5010700;28;20054;-72
2022/11/23 00:11:02;;;;;;;23.52;13.73;;;;;;;;;;5015982;28;20052;-69
2022/11/23 00:13:28;;;;;;;22.00;13.40;;;;;;;;;;5021472;28;20054;-72
2022/11/23 00:15:54;;;;;;;24.02;13.82;;;;;;;;;;5008948;28;20580;-70
2022/11/23 00:18:21;;;;;;;28.13;15.23;;;;;;;;;;5008368;28;20500;-71
2022/11/23 00:20:47;;;;;;;30.58;15.57;;;;;;;;;;5022503;28;20594;-71
2022/11/23 00:23:13;;;;;;;23.35;15.38;;;;;;;;;;5012371;28;20060;-70
2022/11/23 00:25:42;;;;;;;27.25;16.15;;;;;;;;;;5023803;28;20046;-69
2022/11/23 00:28:09;;;;;;;23.95;15.10;;;;;;;;;;5015340;28;20151;-68
2022/11/23 00:30:35;;;;;;;31.48;16.52;;;;;;;;;;5015070;28;20054;-71
2022/11/23 00:33:01;;;;;;;23.70;14.55;;;;;;;;;;5021242;28;20053;-70
2022/11/23 00:35:28;;;;;;;37.88;16.38;;;;;;;;;;5010600;28;20527;-71
2022/11/23 00:37:54;;;;;;;25.33;16.95;;;;;;;;;;5012046;28;20547;-69
2022/11/23 00:40:20;;;;;;;32.25;17.30;;;;;;;;;;5009767;28;20082;-71
2022/11/23 00:42:46;;;;;;;30.65;16.77;;;;;;;;;;5022190;28;20050;-70
2022/11/23 00:45:13;;;;;;;32.75;17.48;;;;;;;;;;5020167;28;20116;-68
2022/11/23 00:47:39;;;;;;;30.30;17.88;;;;;;;;;;5022084;28;20058;-71
2022/11/23 00:50:05;;;;;;;31.48;17.25;;;;;;;;;;5009442;28;20053;-70
2022/11/23 00:52:31;;;;;;;33.33;17.00;;;;;;;;;;5020231;28;20050;-70
2022/11/23 00:54:58;;;;;;;35.30;19.27;;;;;;;;;;5023081;28;20045;-69
2022/11/23 00:57:24;;;;;;;30.67;18.45;;;;;;;;;;5020210;28;20135;-70
2022/11/23 00:59:50;;;;;;;35.45;18.35;;;;;;;;;;5021661;28;20057;-71
2022/11/23 01:02:17;;;;;;;31.70;17.50;;;;;;;;;;5017843;28;20068;-71
2022/11/23 01:04:43;;;;;;;38.85;18.33;;;;;;;;;;5019870;28;20575;-69
2022/11/23 01:07:09;;;;;;;32.22;18.77;;;;;;;;;;5005644;28;20038;-71
2022/11/23 01:09:36;;;;;;;37.78;18.58;;;;;;;;;;5011041;28;20054;-71
2022/11/23 01:12:02;;;;;;;33.33;17.80;;;;;;;;;;5019606;28;20077;-69
2022/11/23 01:14:28;;;;;;;30.50;18.92;;;;;;;;;;5006071;28;20054;-71
2022/11/23 01:16:55;;;;;;;33.00;18.17;;;;;;;;;;5020484;28;20108;-71
2022/11/23 01:19:21;;;;;;;33.78;17.65;;;;;;;;;;5022210;28;20058;-71
2022/11/23 01:21:47;;;;;;;36.28;19.13;;;;;;;;;;5019271;28;20080;-71
2022/11/23 01:24:15;;;;;;;32.47;17.42;;;;;;;;;;5019319;28;20058;-71
2022/11/23 01:26:42;;;;;;;30.52;17.15;;;;;;;;;;5008051;28;20054;-68
2022/11/23 01:29:09;;;;;;;32.60;17.15;;;;;;;;;;5011250;28;20140;-71
2022/11/23 01:31:36;;;;;;;32.92;17.13;;;;;;;;;;5019600;28;20077;-69
2022/11/23 01:34:10;;;;;;;29.30;16.20;;;;;;;;;;5014948;28;20061;-69
2022/11/23 01:36:37;;;;;;;35.35;18.10;;;;;;;;;;5006471;28;20057;-71
2022/11/23 01:39:03;;;;;;;30.77;17.77;;;;;;;;;;5015671;28;20081;-71
2022/11/23 01:41:31;;;;;;;32.35;17.35;;;;;;;;;;5001763;28;20062;-71
2022/11/23 01:43:58;;;;;;;27.85;16.35;;;;;;;;;;5012696;28;20136;-71
2022/11/23 01:46:24;;;;;;;38.30;17.05;;;;;;;;;;5017855;28;20050;-71
2022/11/23 01:48:54;;;;;;;31.33;17.92;;;;;;;;;;5015572;28;20054;-71
2022/11/23 01:51:21;;;;;;;30.05;17.55;;;;;;;;;;5002537;28;20579;-71
2022/11/23 01:53:49;;;;;;;33.20;16.85;;;;;;;;;;5018677;28;20061;-68
2022/11/23 01:56:18;;;;;;;29.05;17.13;;;;;;;;;;5017415;28;20061;-71
2022/11/23 01:58:47;;;;;;;36.15;16.10;;;;;;;;;;5020771;28;20451;-71
2022/11/23 02:01:13;;;;;;;27.60;15.20;;;;;;;;;;5017874;28;20073;-68
2022/11/23 02:03:41;;;;;;;30.77;17.67;;;;;;;;;;5021499;28;20060;-71
2022/11/23 02:06:10;;;;;;;28.52;14.00;;;;;;;;;;5017691;28;20052;-71
2022/11/23 02:08:37;;;;;;;27.95;15.77;;;;;;;;;;5023401;28;20054;-70
2022/11/23 02:11:03;;;;;;;29.08;14.38;;;;;;;;;;5020181;28;20058;-71
2022/11/23 02:13:30;;;;;;;26.13;15.35;;;;;;;;;;5024340;28;20312;-70
2022/11/23 02:15:57;;;;;;;25.13;15.38;;;;;;;;;;5017084;28;20054;-71
2022/11/23 02:18:25;;;;;;;27.80;15.02;;;;;;;;;;5023166;28;20449;-71
2022/11/23 02:20:51;;;;;;;23.05;13.88;;;;;;;;;;5024306;28;20506;-71
2022/11/23 02:23:24;;;;;;;26.55;13.05;;;;;;;;;;5023918;28;20517;-71
2022/11/23 02:26:13;;;;;;;26.05;13.25;;;;;;;;;;5016175;28;20542;-71
2022/11/23 02:28:44;;;;;;;27.48;13.90;;;;;;;;;;5010249;28;20556;-70
2022/11/23 02:31:10;;;;;;;24.25;12.85;;;;;;;;;;5010285;28;20461;-70
2022/11/23 02:33:54;;;;;;;25.67;12.35;;;;;;;;;;5008539;28;20059;-68
2022/11/23 02:36:37;;;;;;;28.75;12.68;;;;;;;;;;5023299;28;20500;-71
2022/11/23 02:39:12;;;;;;;18.13;11.52;;;;;;;;;;5024263;28;20054;-68
2022/11/23 02:41:46;;;;;;;20.50;12.20;;;;;;;;;;5022287;28;20061;-69
2022/11/23 02:44:36;;;;;;;24.77;11.38;;;;;;;;;;5004002;28;20373;-72
2022/11/23 02:47:03;;;;;;;20.20;10.73;;;;;;;;;;5025822;28;20050;-69
2022/11/23 02:49:29;;;;;;;18.58;11.68;;;;;;;;;;5028493;28;20054;-71
2022/11/23 02:51:56;;;;;;;15.52;10.38;;;;;;;;;;5034373;28;20049;-72
2022/11/23 02:54:22;;;;;;;20.95;10.35;;;;;;;;;;5033171;28;20045;-72
2022/11/23 02:56:49;;;;;;;23.67;10.32;;;;;;;;;;5025282;28;20052;-69
2022/11/23 02:59:15;;;;;;;20.30;10.88;;;;;;;;;;5031613;28;20058;-72
2022/11/23 03:01:41;;;;;;;23.23;11.63;;;;;;;;;;5039036;28;20057;-70
2022/11/23 03:04:08;;;;;;;24.45;12.18;;;;;;;;;;5038680;28;20950;-72
2022/11/23 03:06:35;;;;;;;23.95;10.20;;;;;;;;;;5027916;28;20085;-71
2022/11/23 03:09:01;;;;;;;22.73;11.73;;;;;;;;;;5029468;28;20244;-69
2022/11/23 03:11:27;;;;;;;16.63;10.13;;;;;;;;;;5026937;28;20081;-69
2022/11/23 03:13:54;;;;;;;20.27;10.70;;;;;;;;;;5024744;28;20901;-71
2022/11/23 03:16:20;;;;;;;21.45;10.60;;;;;;;;;;5028142;28;20056;-70
2022/11/23 03:18:47;;;;;;;18.00;9.68;;;;;;;;;;5033148;28;20093;-71
2022/11/23 03:21:13;;;;;;;20.10;10.80;;;;;;;;;;5028594;28;20134;-71
2022/11/23 03:23:39;;;;;;;18.58;9.20;;;;;;;;;;5020691;28;20104;-70
2022/11/23 03:26:06;;;;;;;15.77;9.35;;;;;;;;;;5015828;28;20524;-68
2022/11/23 03:28:38;;;;;;;17.95;8.85;;;;;;;;;;5009679;28;20137;-71
2022/11/23 03:31:04;;;;;;;18.70;8.95;;;;;;;;;;5008437;28;20050;-71
2022/11/23 03:33:30;;;;;;;16.73;9.13;;;;;;;;;;5015735;28;20058;-71
2022/11/23 03:35:57;;;;;;;19.25;9.35;;;;;;;;;;5011783;28;20139;-71
2022/11/23 03:38:23;;;;;;;13.70;8.25;;;;;;;;;;5022360;28;20108;-69
2022/11/23 03:40:49;;;;;;;19.15;9.15;;;;;;;;;;5013900;28;20042;-71
2022/11/23 03:43:16;;;;;;;13.50;7.80;;;;;;;;;;5015755;28;20058;-70
2022/11/23 03:45:42;;;;;;;12.48;8.00;;;;;;;;;;5005434;28;20054;-71
2022/11/23 03:48:08;;;;;;;16.65;7.97;;;;;;;;;;5022810;28;20049;-69
2022/11/23 03:50:35;;;;;;;13.80;7.75;;;;;;;;;;5019229;28;20061;-71
2022/11/23 03:53:01;;;;;;;14.25;8.15;;;;;;;;;;5018351;28;20054;-70
2022/11/23 03:55:28;;;;;;;13.35;8.10;;;;;;;;;;5016502;28;20060;-72
2022/11/23 03:57:58;;;;;;;18.85;8.02;;;;;;;;;;5019897;28;20502;-72
2022/11/23 04:00:25;;;;;;;15.27;8.15;;;;;;;;;;5019181;28;20846;-71
2022/11/23 04:02:51;;;;;;;16.30;8.80;;;;;;;;;;5022346;28;20057;-73
2022/11/23 04:05:18;;;;;;;15.18;7.90;;;;;;;;;;5021781;28;20050;-70
2022/11/23 04:07:45;;;;;;;12.00;7.32;;;;;;;;;;5014098;28;20550;-72
2022/11/23 04:10:13;;;;;;;18.05;8.07;;;;;;;;;;5003976;28;20046;-69
2022/11/23 04:12:39;;;;;;;17.77;7.90;;;;;;;;;;5020790;28;20056;-73
2022/11/23 04:15:06;;;;;;;14.45;7.00;;;;;;;;;;5018707;28;20085;-73
2022/11/23 04:17:32;;;;;;;14.90;7.55;;;;;;;;;;5020704;28;20505;-72
2022/11/23 04:19:58;;;;;;;12.05;7.45;;;;;;;;;;5022780;28;20100;-73
2022/11/23 04:22:25;;;;;;;13.48;7.07;;;;;;;;;;5021629;28;20089;-69
2022/11/23 04:24:51;;;;;;;19.10;8.68;;;;;;;;;;5017562;28;20054;-70
2022/11/23 04:27:17;;;;;;;12.73;7.75;;;;;;;;;;5017217;28;20054;-73
2022/11/23 04:29:44;;;;;;;12.63;7.75;;;;;;;;;;5021905;28;20128;-73
2022/11/23 04:32:10;;;;;;;15.93;7.10;;;;;;;;;;5021227;28;20045;-71
2022/11/23 04:34:37;;;;;;;14.75;7.22;;;;;;;;;;5021005;28;20534;-73
2022/11/23 04:37:03;;;;;;;17.05;7.35;;;;;;;;;;5021626;28;20050;-72
2022/11/23 04:39:35;;;;;;;11.95;7.20;;;;;;;;;;5022865;28;20556;-70
2022/11/23 04:42:01;;;;;;;14.02;7.60;;;;;;;;;;5021806;28;20058;-72
2022/11/23 04:44:28;;;;;;;15.38;6.25;;;;;;;;;;5022398;28;20279;-73
2022/11/23 04:46:54;;;;;;;18.02;7.57;;;;;;;;;;5008339;28;20081;-71
2022/11/23 04:49:20;;;;;;;12.73;6.70;;;;;;;;;;5006933;28;20051;-70
2022/11/23 04:51:47;;;;;;;11.45;7.10;;;;;;;;;;5020807;28;20058;-72
2022/11/23 04:54:13;;;;;;;12.82;6.18;;;;;;;;;;5020231;28;20719;-73
2022/11/23 04:56:39;;;;;;;13.70;6.43;;;;;;;;;;5021435;28;20058;-72
2022/11/23 04:59:06;;;;;;;11.70;5.88;;;;;;;;;;5019730;28;20051;-70
2022/11/23 05:01:32;;;;;;;16.38;6.95;;;;;;;;;;5017190;28;20517;-73
2022/11/23 05:03:58;;;;;;;10.32;6.18;;;;;;;;;;5019486;28;20058;-72
2022/11/23 05:06:25;;;;;;;10.52;6.50;;;;;;;;;;5017279;28;20054;-73
2022/11/23 05:08:51;;;;;;;13.23;6.35;;;;;;;;;;5013910;28;20136;-72
2022/11/23 05:11:19;;;;;;;11.63;5.55;;;;;;;;;;5021091;28;20077;-72
2022/11/23 05:13:45;;;;;;;11.15;5.78;;;;;;;;;;5020385;28;20548;-72
2022/11/23 05:16:12;;;;;;;10.77;5.50;;;;;;;;;;5012237;28;20056;-70
2022/11/23 05:18:38;;;;;;;21.77;6.28;;;;;;;;;;5022106;28;20066;-72
2022/11/23 05:21:05;;;;;;;19.38;6.43;;;;;;;;;;5009973;28;20050;-71
2022/11/23 05:23:31;;;;;;;18.38;5.50;;;;;;;;;;5008041;28;20051;-72
2022/11/23 05:25:57;;;;;;;12.10;5.72;;;;;;;;;;5018975;28;20046;-71
2022/11/23 05:28:24;;;;;;;12.68;5.72;;;;;;;;;;5018283;28;20084;-71
2022/11/23 05:31:07;;;;;;;17.83;6.63;;;;;;;;;;5008296;28;20101;-72
2022/11/23 05:33:33;;;;;;;11.90;5.18;;;;;;;;;;5018813;28;20058;-70
2022/11/23 05:36:00;;;;;;;10.02;5.45;;;;;;;;;;5012404;28;20061;-71
2022/11/23 05:38:26;;;;;;;10.93;4.97;;;;;;;;;;5001921;28;21070;-73
2022/11/23 05:40:52;;;;;;;16.60;5.53;;;;;;;;;;5008942;28;20055;-72
2022/11/23 05:43:19;;;;;;;10.52;6.75;;;;;;;;;;5019371;28;20058;-73
2022/11/23 05:45:45;;;;;;;10.68;5.40;;;;;;;;;;5019175;28;20084;-71
2022/11/23 05:48:11;;;;;;;21.33;5.85;;;;;;;;;;5003015;28;20054;-69
2022/11/23 05:50:38;;;;;;;15.07;5.50;;;;;;;;;;5017959;28;20064;-69
2022/11/23 05:53:04;;;;;;;12.15;5.32;;;;;;;;;;5020029;28;20046;-71
2022/11/23 05:55:31;;;;;;;12.90;5.68;;;;;;;;;;5019430;28;20753;-70
2022/11/23 05:57:57;;;;;;;11.45;4.75;;;;;;;;;;5020305;28;20054;-72
2022/11/23 06:00:23;;;;;;;15.52;6.38;;;;;;;;;;5018876;28;20049;-72
2022/11/23 06:02:50;;;;;;;13.45;5.43;;;;;;;;;;5020059;28;20050;-72
2022/11/23 06:05:16;;;;;;;18.20;5.93;;;;;;;;;;5020049;28;20137;-70
2022/11/23 06:07:42;;;;;;;17.60;6.18;;;;;;;;;;5016078;28;20605;-72
2022/11/23 06:10:10;;;;;;;12.98;5.35;;;;;;;;;;5015047;28;20062;-72
2022/11/23 06:12:37;;;;;;;13.52;5.80;;;;;;;;;;5007359;28;20124;-70
2022/11/23 06:15:03;;;;;;;11.25;5.68;;;;;;;;;;5004705;28;20061;-71
2022/11/23 06:17:29;;;;;;;12.45;5.05;;;;;;;;;;5016958;28;20098;-72
2022/11/23 06:19:56;;;;;;;11.63;7.07;;;;;;;;;;5010993;28;20141;-70
2022/11/23 06:22:22;;;;;;;10.93;5.30;;;;;;;;;;5019316;28;20647;-72
2022/11/23 06:24:48;;;;;;;13.80;5.85;;;;;;;;;;5012567;28;20146;-72
2022/11/23 06:27:16;;;;;;;20.73;5.90;;;;;;;;;;5012193;28;20578;-73
2022/11/23 06:29:43;;;;;;;11.18;5.10;;;;;;;;;;5018647;28;20050;-71
2022/11/23 06:32:10;;;;;;;15.77;5.07;;;;;;;;;;5018385;28;20134;-70
2022/11/23 06:34:37;;;;;;;8.23;4.68;;;;;;;;;;5020261;28;20060;-72
2022/11/23 06:37:03;;;;;;;12.40;5.00;;;;;;;;;;5020374;28;20081;-70
2022/11/23 06:39:29;;;;;;;11.07;4.18;;;;;;;;;;5015167;28;20061;-72
2022/11/23 06:41:56;;;;;;;10.43;5.15;;;;;;;;;;5019862;28;20132;-71
2022/11/23 06:44:42;;;;;;;9.15;4.72;;;;;;;;;;5001710;28;20061;-71
2022/11/23 06:47:09;;;;;;;13.27;4.47;;;;;;;;;;5010738;28;20051;-71
2022/11/23 06:49:42;;;;;;;7.55;4.10;;;;;;;;;;5015253;28;20844;-71
2022/11/23 06:52:08;;;;;;;11.13;3.80;;;;;;;;;;5016044;28;20589;-69
2022/11/23 06:54:35;;;;;;;12.75;4.60;;;;;;;;;;5027371;28;20049;-72
2022/11/23 06:57:01;;;;;;;13.35;4.18;;;;;;;;;;5024455;28;20056;-70
2022/11/23 06:59:27;;;;;;;11.43;3.65;;;;;;;;;;5023999;28;20053;-68
2022/11/23 07:01:54;;;;;;;10.80;4.07;;;;;;;;;;5023511;28;20053;-71
2022/11/23 07:04:20;;;;;;;8.82;4.30;;;;;;;;;;5024222;28;20678;-72
2022/11/23 07:06:46;;;;;;;12.35;3.45;;;;;;;;;;5012038;28;20054;-72
2022/11/23 07:09:12;;;;;;;12.13;3.00;;;;;;;;;;5023665;28;20522;-69
2022/11/23 07:11:39;;;;;;;14.30;3.38;;;;;;;;;;5024354;28;20535;-70
2022/11/23 07:14:06;;;;;;;8.38;2.60;;;;;;;;;;5017276;28;20152;-69
2022/11/23 07:16:32;;;;;;;12.48;2.80;;;;;;;;;;5019765;28;20053;-71
2022/11/23 07:18:58;;;;;;;17.95;3.30;;;;;;;;;;5026715;28;20583;-71
2022/11/23 07:21:25;;;;;;;17.52;3.22;;;;;;;;;;5013520;28;20049;-71
2022/11/23 07:23:51;;;;;;;12.85;2.55;;;;;;;;;;5024434;28;20121;-71
2022/11/23 07:26:17;;;;;;;9.10;2.83;;;;;;;;;;5027071;28;20057;-71
2022/11/23 07:28:44;;;;;;;6.85;3.08;;;;;;;;;;5036166;28;20507;-73
2022/11/23 07:31:10;;;;;;;9.80;2.70;;;;;;;;;;5024839;28;20181;-73
2022/11/23 07:33:37;;;;;;;10.25;2.83;;;;;;;;;;5034372;28;20057;-72
2022/11/23 07:36:03;;;;;;;15.18;3.88;;;;;;;;;;5032197;28;20528;-69
2022/11/23 07:38:30;;;;;;;12.15;2.95;;;;;;;;;;5025437;28;20042;-71
2022/11/23 07:40:57;;;;;;;13.73;3.05;;;;;;;;;;5018523;28;20529;-70
2022/11/23 07:43:24;;;;;;;12.27;2.83;;;;;;;;;;5027141;28;20045;-71
2022/11/23 07:45:50;;;;;;;7.32;2.05;;;;;;;;;;5016932;28;20062;-69
2022/11/23 07:48:16;;;;;;;13.38;3.53;;;;;;;;;;5019238;28;20100;-71
2022/11/23 07:50:43;;;;;;;13.15;2.25;;;;;;;;;;5008327;28;20045;-72
2022/11/23 07:53:09;;;;;;;15.48;2.95;;;;;;;;;;5019288;28;20113;-71
2022/11/23 07:55:36;;;;;;;17.60;2.80;;;;;;;;;;5036323;28;20127;-72
2022/11/23 07:58:02;;;;;;;11.93;3.17;;;;;;;;;;5040673;28;20049;-72
2022/11/23 08:00:28;;;;;;;8.23;2.90;;;;;;;;;;5040020;28;20061;-69
2022/11/23 08:02:56;;;;;;;9.80;2.78;;;;;;;;;;5008851;28;20054;-71
2022/11/23 08:05:42;;;;;;;13.27;3.10;;;;;;;;;;5016912;28;20141;-70
2022/11/23 08:08:08;;;;;;;11.13;2.35;;;;;;;;;;5022750;28;20508;-69
2022/11/23 08:10:35;;;;;;;6.32;2.90;;;;;;;;;;5022235;28;20054;-71
2022/11/23 08:13:09;;;;;;;11.75;2.55;;;;;;;;;;5017279;28;20081;-69
2022/11/23 08:15:36;;;;;;;9.18;2.72;;;;;;;;;;5011671;28;20234;-71
2022/11/23 08:18:03;;;;;;;15.45;2.80;;;;;;;;;;5022626;28;20435;-71
2022/11/23 08:20:30;;;;;;;10.63;2.72;;;;;;;;;;5030572;28;20136;-71
2022/11/23 08:22:56;;;;;;;8.82;2.40;;;;;;;;;;5036135;28;20523;-71
2022/11/23 08:25:22;;;;;;;12.27;2.90;;;;;;;;;;5038761;28;20060;-72
2022/11/23 08:27:59;;;;;;;11.23;2.40;;;;;;;;;;5026511;28;20053;-71
2022/11/23 08:30:26;;;;;;;12.55;2.45;;;;;;;;;;5019356;28;20046;-72
2022/11/23 08:32:52;;;;;;;16.33;2.58;;;;;;;;;;5022753;28;20518;-72
2022/11/23 08:35:19;;;;;;;9.68;2.53;;;;;;;;;;5020408;28;20156;-70
2022/11/23 08:37:45;;;;;;;15.60;2.50;;;;;;;;;;5026503;28;20053;-72
2022/11/23 08:40:12;;;;;;;8.90;2.55;;;;;;;;;;5020124;28;20506;-68
2022/11/23 08:42:38;;;;;;;12.23;2.15;;;;;;;;;;5021220;28;20508;-71
2022/11/23 08:45:05;;;;;;;11.25;2.10;;;;;;;;;;5031202;28;20060;-71
2022/11/23 08:47:32;;;;;;;12.40;2.53;;;;;;;;;;5018121;28;20184;-70
2022/11/23 08:49:58;;;;;;;15.52;2.67;;;;;;;;;;5041983;28;20080;-71
2022/11/23 08:52:25;;;;;;;13.48;2.60;;;;;;;;;;5022446;28;20077;-69
2022/11/23 08:54:51;;;;;;;15.02;2.63;;;;;;;;;;5022363;28;20050;-71
2022/11/23 08:57:18;;;;;;;13.07;2.92;;;;;;;;;;5022272;28;20050;-71
2022/11/23 08:59:44;;;;;;;13.68;2.30;;;;;;;;;;5012932;28;20571;-69
2022/11/23 09:02:13;;;;;;;13.90;2.50;;;;;;;;;;5022454;28;20530;-69
2022/11/23 09:04:40;;;;;;;15.77;2.67;;;;;;;;;;5032819;28;20422;-71
2022/11/23 09:07:07;;;;;;;12.80;2.80;;;;;;;;;;5029365;28;20137;-71
2022/11/23 09:09:33;;;;;;;15.15;3.40;;;;;;;;;;5015674;28;20056;-70
2022/11/23 09:11:59;;;;;;;11.82;2.60;;;;;;;;;;5028987;28;20133;-71
2022/11/23 09:14:26;;;;;;;9.07;2.75;;;;;;;;;;5020025;28;20065;-71
2022/11/23 09:16:53;;;;;;;14.07;2.58;;;;;;;;;;5019997;28;20056;-69
2022/11/23 09:19:20;;;;;;;14.13;2.20;;;;;;;;;;5015245;28;20062;-71
2022/11/23 09:21:47;;;;;;;13.57;3.50;;;;;;;;;;5017304;28;20049;-71
2022/11/23 09:24:13;;;;;;;7.05;2.40;;;;;;;;;;5019935;28;20472;-70
2022/11/23 09:26:40;;;;;;;9.40;2.25;;;;;;;;;;5021308;28;20442;-71
2022/11/23 09:29:07;;;;;;;7.75;1.88;;;;;;;;;;5022064;28;20468;-72
2022/11/23 09:31:34;;;;;;;8.57;2.70;;;;;;;;;;5021018;28;20053;-71
2022/11/23 09:34:00;;;;;;;8.43;2.42;;;;;;;;;;5019124;28;20054;-69
2022/11/23 09:36:27;;;;;;;17.92;2.90;;;;;;;;;;5021842;28;20046;-72
2022/11/23 09:38:54;;;;;;;11.93;3.00;;;;;;;;;;5015986;28;20054;-69
2022/11/23 09:41:41;;;;;;;13.80;2.70;;;;;;;;;;5021488;28;20551;-72
2022/11/23 09:44:13;;;;;;;16.05;2.63;;;;;;;;;;5017385;28;20056;-72
2022/11/23 09:46:44;;;;;;;12.95;2.63;;;;;;;;;;5009777;28;20457;-71
2022/11/23 09:49:12;;;;;;;6.38;1.85;;;;;;;;;;5029804;28;20116;-70
2022/11/23 09:51:39;;;;;;;10.55;2.83;;;;;;;;;;5022393;28;20054;-71
2022/11/23 09:54:13;;;;;;;4.55;1.52;;;;;;;;;;5023326;28;20065;-71
2022/11/23 09:56:40;;;;;;;9.38;2.28;;;;;;;;;;5001992;28;20115;-70
2022/11/23 09:59:19;;;;;;;13.40;2.35;;;;;;;;;;5017566;28;20057;-69
2022/11/23 10:01:45;;;;;;;12.75;2.17;;;;;;;;;;5018559;28;20052;-71
2022/11/23 10:04:16;;;;;;;11.70;2.40;;;;;;;;;;5023057;28;20046;-68
2022/11/23 10:06:42;;;;;;;7.40;1.85;;;;;;;;;;5026709;28;20500;-69
2022/11/23 10:09:23;;;;;;;10.68;2.28;;;;;;;;;;5018322;28;20053;-69
2022/11/23 10:12:08;;;;;;;8.98;2.28;;;;;;;;;;5021756;28;20397;-68
2022/11/23 10:14:53;;;;;;;7.18;1.60;;;;;;;;;;5007638;28;20053;-72
2022/11/23 10:17:38;;;;;;;10.97;2.07;;;;;;;;;;5002707;28;20066;-70
2022/11/23 10:20:23;;;;;;;11.63;2.35;;;;;;;;;;5001845;28;20296;-71
2022/11/23 10:22:55;;;;;;;16.67;2.53;;;;;;;;;;5007874;28;20054;-69
2022/11/23 10:25:22;;;;;;;9.80;2.08;;;;;;;;;;5014583;28;20113;-69
2022/11/23 10:27:49;;;;;;;12.63;2.60;;;;;;;;;;5019349;28;20504;-70
2022/11/23 10:30:17;;;;;;;18.95;3.38;;;;;;;;;;5022400;28;20116;-72
2022/11/23 10:32:48;;;;;;;8.00;2.65;;;;;;;;;;5031104;28;20108;-69
2022/11/23 10:35:24;;;;;;;11.30;2.38;;;;;;;;;;5024920;28;20062;-71
2022/11/23 10:37:50;;;;;;;14.63;3.22;;;;;;;;;;5024454;28;20096;-69
2022/11/23 10:40:19;;;;;;;6.60;1.73;;;;;;;;;;5023477;28;20452;-71
2022/11/23 10:42:50;;;;;;;8.00;2.03;;;;;;;;;;5026970;28;20057;-69
2022/11/23 10:45:22;;;;;;;16.23;3.28;;;;;;;;;;5016446;28;20536;-71
2022/11/23 10:47:53;;;;;;;10.38;2.40;;;;;;;;;;5025956;28;20046;-71
2022/11/23 10:50:21;;;;;;;12.93;2.13;;;;;;;;;;5037587;28;20516;-70
2022/11/23 10:52:49;;;;;;;12.30;2.45;;;;;;;;;;5025046;28;20046;-71
2022/11/23 10:55:17;;;;;;;14.48;2.60;;;;;;;;;;5021231;28;20058;-70
2022/11/23 10:57:44;;;;;;;8.23;2.28;;;;;;;;;;5019859;28;20554;-71
2022/11/23 11:00:14;;;;;;;9.23;2.60;;;;;;;;;;5020872;28;20144;-70
2022/11/23 11:02:41;;;;;;;10.45;2.38;;;;;;;;;;5030950;28;20534;-71
2022/11/23 11:05:34;;;;;;;17.42;2.63;;;;;;;;;;5028991;28;20146;-71
2022/11/23 11:08:29;;;;;;;11.88;2.63;;;;;;;;;;5030208;28;20585;-72
2022/11/23 11:11:03;;;;;;;8.43;2.38;;;;;;;;;;5026965;28;20136;-71
2022/11/23 11:13:41;;;;;;;11.83;2.77;;;;;;;;;;5025763;28;21010;-70
2022/11/23 11:16:26;;;;;;;10.00;2.03;;;;;;;;;;5035185;28;20495;-71
2022/11/23 11:18:53;;;;;;;8.35;2.00;;;;;;;;;;5026156;28;20068;-69
2022/11/23 11:21:23;;;;;;;10.75;2.50;;;;;;;;;;5023211;28;20050;-70
2022/11/23 11:23:52;;;;;;;6.10;1.92;;;;;;;;;;5016081;28;20054;-71
2022/11/23 11:26:20;;;;;;;9.00;2.58;;;;;;;;;;5018279;28;20045;-69
2022/11/23 11:28:50;;;;;;;9.65;2.10;;;;;;;;;;5017730;28;20483;-69
2022/11/23 11:31:17;;;;;;;11.55;2.03;;;;;;;;;;5018967;28;20049;-67
2022/11/23 11:33:48;;;;;;;8.20;2.03;;;;;;;;;;5023681;28;20093;-72
2022/11/23 11:36:15;;;;;;;6.32;2.13;;;;;;;;;;5034439;28;20136;-69
2022/11/23 11:38:45;;;;;;;11.25;2.90;;;;;;;;;;5015382;28;20045;-69
2022/11/23 11:41:32;;;;;;;5.40;1.73;;;;;;;;;;5031385;28;20045;-68
2022/11/23 11:44:05;;;;;;;5.85;2.13;;;;;;;;;;5036618;28;20532;-70
2022/11/23 11:46:37;;;;;;;7.70;2.47;;;;;;;;;;5019855;28;20380;-70
2022/11/23 11:49:06;;;;;;;8.63;2.53;;;;;;;;;;5023383;28;20054;-71
2022/11/23 11:51:35;;;;;;;12.65;2.65;;;;;;;;;;5020089;28;20111;-69
2022/11/23 11:54:11;;;;;;;8.68;2.20;;;;;;;;;;5022370;28;20137;-69
2022/11/23 11:56:38;;;;;;;9.27;2.00;;;;;;;;;;5026447;28;20524;-67
2022/11/23 11:59:12;;;;;;;5.03;2.15;;;;;;;;;;5027388;28;20046;-69
2022/11/23 12:01:44;;;;;;;7.13;2.35;;;;;;;;;;5017590;28;20655;-68
2022/11/23 12:04:15;;;;;;;9.80;2.28;;;;;;;;;;5025484;28;20062;-67
2022/11/23 12:06:45;;;;;;;8.98;2.88;;;;;;;;;;5038300;28;20050;-69
2022/11/23 12:09:25;;;;;;;9.45;2.40;;;;;;;;;;5022331;28;20050;-69
2022/11/23 12:11:52;;;;;;;8.60;1.80;;;;;;;;;;5022484;28;20107;-70
2022/11/23 12:14:18;;;;;;;7.55;2.03;;;;;;;;;;5017506;28;20511;-70
2022/11/23 12:16:49;;;;;;;8.13;2.17;;;;;;;;;;5030088;28;20057;-72
2022/11/23 12:19:42;;;;;;;11.25;2.17;;;;;;;;;;5019385;28;20050;-69
2022/11/23 12:22:21;;;;;;;8.73;2.10;;;;;;;;;;5017836;28;20136;-72
2022/11/23 12:24:50;;;;;;;6.20;2.00;;;;;;;;;;5022968;28;20432;-71
2022/11/23 12:27:16;;;;;;;8.98;1.88;;;;;;;;;;5018746;28;20054;-69
2022/11/23 12:30:01;;;;;;;11.43;2.85;;;;;;;;;;5003365;28;20058;-68
2022/11/23 12:32:42;;;;;;;10.07;1.95;;;;;;;;;;5025870;28;20518;-69
2022/11/23 12:35:12;;;;;;;11.30;2.03;;;;;;;;;;5029121;28;20053;-69
2022/11/23 12:37:56;;;;;;;6.85;1.98;;;;;;;;;;5012426;28;20060;-69
2022/11/23 12:40:23;;;;;;;5.47;1.50;;;;;;;;;;5024219;28;20602;-69
2022/11/23 12:43:09;;;;;;;9.48;1.85;;;;;;;;;;5031878;28;20558;-69
2022/11/23 12:45:45;;;;;;;10.80;1.45;;;;;;;;;;5029328;28;20125;-70
2022/11/23 12:48:31;;;;;;;6.82;1.80;;;;;;;;;;5023297;28;20050;-68
2022/11/23 12:51:13;;;;;;;5.78;2.00;;;;;;;;;;5008373;28;20062;-69
2022/11/23 12:53:58;;;;;;;13.23;1.98;;;;;;;;;;5006234;28;20061;-68
2022/11/23 12:56:42;;;;;;;7.30;1.60;;;;;;;;;;5022330;28;20532;-68
2022/11/23 12:59:10;;;;;;;12.45;1.73;;;;;;;;;;5024317;28;20131;-69
2022/11/23 13:01:46;;;;;;;5.93;1.55;;;;;;;;;;5027033;28;20520;-70
2022/11/23 13:04:24;;;;;;;7.80;1.58;;;;;;;;;;5011431;28;20057;-68
2022/11/23 13:06:56;;;;;;;4.30;1.25;;;;;;;;;;5031872;28;20057;-67
2022/11/23 13:10:01;;;;;;;8.77;1.92;;;;;;;;;;5020581;28;20599;-69
2022/11/23 13:12:27;;;;;;;8.90;1.80;;;;;;;;;;5038201;28;20523;-68
2022/11/23 13:15:00;;;;;;;8.35;2.00;;;;;;;;;;5035799;28;20508;-58
2022/11/23 13:17:26;;;;;;;3.63;1.42;;;;;;;;;;5016015;28;20042;-70
2022/11/23 13:20:03;;;;;;;8.38;1.50;;;;;;;;;;5011533;28;20139;-70
2022/11/23 13:22:30;;;;;;;4.95;1.08;;;;;;;;;;5019949;28;20042;-71
2022/11/23 13:25:00;;;;;;;3.70;1.27;;;;;;;;;;5028348;28;20048;-70
2022/11/23 13:27:27;;;;;;;5.20;1.40;;;;;;;;;;5039656;28;21050;-68
2022/11/23 13:29:59;;;;;;;7.75;1.60;;;;;;;;;;4996593;28;20146;-71
2022/11/23 13:32:52;;;;;;;6.80;1.52;;;;;;;;;;5018302;28;20117;-68
2022/11/23 13:35:21;;;;;;;7.47;1.67;;;;;;;;;;5032950;28;20057;-72
2022/11/23 13:37:59;;;;;;;4.45;1.33;;;;;;;;;;5016422;28;20531;-68
2022/11/23 13:40:26;;;;;;;4.00;1.10;;;;;;;;;;5030729;28;20597;-72
2022/11/23 13:42:55;;;;;;;5.60;2.03;;;;;;;;;;5010397;28;20055;-69
2022/11/23 13:45:27;;;;;;;7.85;1.48;;;;;;;;;;5020873;28;20046;-72
2022/11/23 13:48:08;;;;;;;4.95;1.20;;;;;;;;;;5024717;28;20053;-71
2022/11/23 13:50:47;;;;;;;10.70;3.05;;;;;;;;;;5022613;28;20054;-69
2022/11/23 13:53:21;;;;;;;5.85;1.52;;;;;;;;;;5019394;28;20050;-71
2022/11/23 13:55:50;;;;;;;3.28;1.00;;;;;;;;;;5019050;28;20504;-70
2022/11/23 13:58:22;;;;;;;3.90;1.42;;;;;;;;;;5027701;28;20068;-70
2022/11/23 14:00:56;;;;;;;6.57;1.67;;;;;;;;;;5024361;28;20054;-70
2022/11/23 14:03:41;;;;;;;7.55;1.60;;;;;;;;;;5025580;28;20049;-71
2022/11/23 14:06:13;;;;;;;3.25;1.30;;;;;;;;;;5011268;28;20140;-69
2022/11/23 14:08:41;;;;;;;7.40;1.35;;;;;;;;;;5038304;28;20580;-67
2022/11/23 14:11:12;;;;;;;8.15;2.10;;;;;;;;;;5025347;28;20065;-71
2022/11/23 14:13:39;;;;;;;3.53;1.23;;;;;;;;;;5021938;28;20129;-69
2022/11/23 14:16:10;;;;;;;4.75;1.67;;;;;;;;;;5023116;28;20230;-67
2022/11/23 14:18:59;;;;;;;6.10;1.80;;;;;;;;;;5032356;28;20235;-69
2022/11/23 14:21:41;;;;;;;8.18;1.73;;;;;;;;;;5020707;28;20136;-70
2022/11/23 14:24:25;;;;;;;5.32;1.50;;;;;;;;;;5022895;28;20050;-68
2022/11/23 14:27:15;;;;;;;6.40;1.48;;;;;;;;;;5023599;28;20046;-69
2022/11/23 14:30:01;;;;;;;9.60;2.17;;;;;;;;;;5021453;28;20139;-67
2022/11/23 14:32:34;;;;;;;10.77;1.67;;;;;;;;;;5022427;28;20088;-71
2022/11/23 14:35:16;;;;;;;3.92;1.55;;;;;;;;;;5014045;28;20055;-70
2022/11/23 14:37:51;;;;;;;11.80;2.08;;;;;;;;;;5014591;28;20059;-68
2022/11/23 14:40:17;;;;;;;;;;;;;;;;;;5026586;28;20064;-68
2022/11/23 14:42:44;;;;;;;;;;;;;;;;;;5024634;28;43572;-71
2022/11/23 14:45:12;;;;;;;11.00;2.17;;;;;;;;;;5021399;28;44134;-71